createdAt,value
2023-05-21T00:01:30.444Z,4.95
2023-05-21T00:03:59.922Z,5.20
2023-05-21T00:06:28.662Z,5.07
2023-05-21T00:08:57.082Z,4.95
2023-05-21T00:11:25.435Z,5.32
2023-05-21T00:13:53.738Z,5.35
2023-05-21T00:16:23.711Z,5.43
2023-05-21T00:18:54.459Z,5.47
2023-05-21T00:21:26.290Z,5.15
2023-05-21T00:23:56.510Z,5.32
2023-05-21T00:26:25.278Z,5.45
2023-05-21T00:28:57.993Z,5.20
2023-05-21T00:31:27.775Z,5.68
2023-05-21T00:33:56.130Z,5.45
2023-05-21T00:36:25.347Z,5.75
2023-05-21T00:38:53.933Z,6.07
2023-05-21T00:41:23.097Z,5.60
2023-05-21T00:43:52.958Z,6.03
2023-05-21T00:46:22.804Z,5.70
2023-05-21T00:48:53.437Z,5.72
2023-05-21T00:51:22.249Z,6.63
2023-05-21T00:53:52.654Z,6.20
2023-05-21T00:56:22.797Z,5.88
2023-05-21T00:58:52.230Z,5.32
2023-05-21T01:01:20.655Z,5.70
2023-05-21T01:03:49.331Z,5.65
2023-05-21T01:06:20.797Z,5.50
2023-05-21T01:08:50.939Z,5.43
2023-05-21T01:11:21.715Z,5.65
2023-05-21T01:13:51.290Z,5.55
2023-05-21T01:16:19.853Z,6.57
2023-05-21T01:18:48.434Z,5.45
2023-05-21T01:21:19.691Z,5.65
2023-05-21T01:23:52.254Z,5.78
2023-05-21T01:26:20.604Z,5.32
2023-05-21T01:28:49.199Z,5.28
2023-05-21T01:31:26.570Z,5.70
2023-05-21T01:33:58.200Z,5.22
2023-05-21T01:36:31.225Z,5.38
2023-05-21T01:39:07.778Z,5.50
2023-05-21T01:41:40.948Z,5.45
2023-05-21T01:44:11.146Z,5.05
2023-05-21T01:46:40.988Z,4.88
2023-05-21T01:49:09.961Z,5.53
2023-05-21T01:51:38.532Z,5.47
2023-05-21T01:54:08.219Z,5.10
2023-05-21T01:56:37.218Z,5.28
2023-05-21T01:59:05.678Z,5.10
2023-05-21T02:01:34.388Z,5.40
2023-05-21T02:04:02.903Z,5.03
2023-05-21T02:06:32.769Z,5.47
2023-05-21T02:09:01.112Z,5.53
2023-05-21T02:11:30.992Z,4.75
2023-05-21T02:13:59.418Z,4.70
2023-05-21T02:16:27.864Z,4.80
2023-05-21T02:18:57.562Z,4.93
2023-05-21T02:21:26.354Z,4.75
2023-05-21T02:23:54.672Z,4.85
2023-05-21T02:26:23.199Z,4.70
2023-05-21T02:28:53.009Z,4.70
2023-05-21T02:31:21.325Z,4.75
2023-05-21T02:33:49.666Z,4.45
2023-05-21T02:36:19.267Z,4.47
2023-05-21T02:38:47.881Z,4.10
2023-05-21T02:41:16.397Z,4.68
2023-05-21T02:43:44.710Z,4.47
2023-05-21T02:46:14.645Z,4.53
2023-05-21T02:48:43.068Z,4.47
2023-05-21T02:51:11.618Z,4.50
2023-05-21T02:53:40.636Z,4.78
2023-05-21T02:56:09.241Z,5.15
2023-05-21T02:58:37.569Z,4.25
2023-05-21T03:01:06.137Z,4.70
2023-05-21T03:03:36.047Z,4.53
2023-05-21T03:06:05.037Z,4.43
2023-05-21T03:08:33.432Z,4.55
2023-05-21T03:11:01.845Z,4.85
2023-05-21T03:13:30.332Z,4.30
2023-05-21T03:15:58.649Z,4.70
2023-05-21T03:18:26.988Z,4.60
2023-05-21T03:20:59.105Z,4.88
2023-05-21T03:23:28.184Z,4.70
2023-05-21T03:25:56.822Z,4.30
2023-05-21T03:28:25.155Z,4.78
2023-05-21T03:30:53.792Z,4.55
2023-05-21T03:33:54.901Z,4.80
2023-05-21T03:36:27.733Z,4.57
2023-05-21T03:38:57.391Z,5.28
2023-05-21T03:41:26.428Z,4.97
2023-05-21T03:44:17.706Z,5.07
2023-05-21T03:46:57.161Z,4.63
2023-05-21T03:49:28.795Z,4.80
2023-05-21T03:51:59.902Z,4.85
2023-05-21T03:54:29.133Z,4.70
2023-05-21T03:57:02.617Z,4.70
2023-05-21T03:59:30.926Z,4.68
2023-05-21T04:01:59.652Z,4.15
2023-05-21T04:04:29.528Z,4.82
2023-05-21T04:06:59.713Z,4.32
2023-05-21T04:09:28.919Z,5.05
2023-05-21T04:11:57.279Z,4.75
2023-05-21T04:14:25.584Z,4.70
2023-05-21T04:16:54.286Z,4.70
2023-05-21T04:19:23.164Z,4.40
2023-05-21T04:21:51.956Z,4.55
2023-05-21T04:24:22.640Z,4.43
2023-05-21T04:27:10.141Z,4.43
2023-05-21T04:29:42.652Z,3.92
2023-05-21T04:32:11.685Z,3.83
2023-05-21T04:34:42.141Z,3.95
2023-05-21T04:37:10.677Z,4.10
2023-05-21T04:39:41.143Z,3.70
2023-05-21T04:42:10.933Z,4.00
2023-05-21T04:44:40.341Z,3.60
2023-05-21T04:47:08.965Z,3.88
2023-05-21T04:49:37.692Z,4.10
2023-05-21T04:52:06.754Z,3.67
2023-05-21T04:54:36.522Z,3.60
2023-05-21T04:57:06.413Z,3.60
2023-05-21T04:59:35.392Z,4.30
2023-05-21T05:02:03.558Z,3.83
2023-05-21T05:04:32.436Z,3.80
2023-05-21T05:07:00.577Z,4.15
2023-05-21T05:09:30.371Z,4.10
2023-05-21T05:11:58.528Z,3.72
2023-05-21T05:14:27.948Z,3.72
2023-05-21T05:17:00.859Z,4.10
2023-05-21T05:19:30.055Z,4.20
2023-05-21T05:21:58.339Z,4.00
2023-05-21T05:24:26.431Z,4.28
2023-05-21T05:26:56.295Z,4.30
2023-05-21T05:29:24.573Z,4.25
2023-05-21T05:31:56.998Z,4.28
2023-05-21T05:34:25.094Z,3.72
2023-05-21T05:36:53.296Z,3.80
2023-05-21T05:39:21.561Z,4.40
2023-05-21T05:41:49.931Z,4.20
2023-05-21T05:44:18.169Z,3.92
2023-05-21T05:46:46.407Z,3.70
2023-05-21T05:49:15.966Z,3.85
2023-05-21T05:51:44.869Z,3.95
2023-05-21T05:54:12.963Z,3.80
2023-05-21T05:56:41.971Z,3.60
2023-05-21T05:59:10.069Z,3.40
2023-05-21T06:01:40.054Z,3.75
2023-05-21T06:04:08.223Z,3.70
2023-05-21T06:06:38.790Z,4.00
2023-05-21T06:09:06.849Z,3.70
2023-05-21T06:11:34.916Z,3.92
2023-05-21T06:14:03.030Z,3.72
2023-05-21T06:16:39.249Z,3.90
2023-05-21T06:19:07.656Z,3.72
2023-05-21T06:21:35.841Z,4.10
2023-05-21T06:24:08.128Z,3.80
2023-05-21T06:26:36.412Z,3.95
2023-05-21T06:29:04.902Z,4.10
2023-05-21T06:31:34.040Z,4.30
2023-05-21T06:34:02.522Z,3.50
2023-05-21T06:36:32.388Z,4.10
2023-05-21T06:39:01.146Z,4.10
2023-05-21T06:41:30.804Z,4.10
2023-05-21T06:44:03.249Z,4.00
2023-05-21T06:46:50.128Z,4.13
2023-05-21T06:49:20.085Z,4.15
2023-05-21T06:51:48.223Z,3.75
2023-05-21T06:54:16.388Z,3.88
2023-05-21T06:56:46.017Z,4.20
2023-05-21T06:59:16.350Z,4.03
2023-05-21T07:01:44.911Z,4.45
2023-05-21T07:04:13.160Z,3.88
2023-05-21T07:06:43.168Z,4.05
2023-05-21T07:09:11.294Z,4.03
2023-05-21T07:11:39.888Z,4.05
2023-05-21T07:14:11.335Z,4.07
2023-05-21T07:16:40.296Z,4.15
2023-05-21T07:19:09.298Z,4.13
2023-05-21T07:21:37.538Z,4.13
2023-05-21T07:24:07.780Z,4.00
2023-05-21T07:26:39.184Z,4.38
2023-05-21T07:29:07.334Z,3.97
2023-05-21T07:31:36.939Z,4.30
2023-05-21T07:34:05.116Z,3.83
2023-05-21T07:36:34.618Z,4.07
2023-05-21T07:39:03.938Z,4.28
2023-05-21T07:41:32.761Z,4.45
2023-05-21T07:44:03.264Z,4.47
2023-05-21T07:46:33.370Z,4.57
2023-05-21T07:49:02.890Z,4.43
2023-05-21T07:51:31.398Z,4.05
2023-05-21T07:53:59.506Z,4.38
2023-05-21T07:56:34.740Z,4.32
2023-05-21T07:59:03.411Z,4.47
2023-05-21T08:01:31.585Z,3.97
2023-05-21T08:04:05.926Z,4.80
2023-05-21T08:06:38.580Z,4.32
2023-05-21T08:09:07.258Z,4.55
2023-05-21T08:11:36.076Z,4.88
2023-05-21T08:14:04.469Z,5.18
2023-05-21T08:16:32.889Z,4.65
2023-05-21T08:19:01.158Z,4.90
2023-05-21T08:21:29.295Z,4.20
2023-05-21T08:24:00.348Z,4.90
2023-05-21T08:26:28.684Z,4.75
2023-05-21T08:28:56.801Z,4.60
2023-05-21T08:31:24.884Z,4.57
2023-05-21T08:33:53.438Z,4.90
2023-05-21T08:36:29.308Z,5.13
2023-05-21T08:39:04.888Z,4.85
2023-05-21T08:41:37.084Z,4.70
2023-05-21T08:44:09.711Z,4.97
2023-05-21T08:46:40.872Z,5.45
2023-05-21T08:49:13.994Z,5.10
2023-05-21T08:51:43.021Z,5.32
2023-05-21T08:54:14.048Z,5.28
2023-05-21T08:56:47.005Z,4.47
2023-05-21T08:59:19.320Z,4.78
2023-05-21T09:01:50.095Z,5.45
2023-05-21T09:04:25.367Z,5.93
2023-05-21T09:06:58.090Z,5.57
2023-05-21T09:09:55.009Z,5.53
2023-05-21T09:12:23.418Z,6.07
2023-05-21T09:14:51.839Z,5.65
2023-05-21T09:17:22.499Z,5.63
2023-05-21T09:20:14.726Z,5.50
2023-05-21T09:22:49.021Z,6.53
2023-05-21T09:25:22.614Z,6.45
2023-05-21T09:27:51.383Z,5.97
2023-05-21T09:30:23.715Z,6.20
2023-05-21T09:32:55.813Z,6.53
2023-05-21T09:35:24.236Z,6.32
2023-05-21T09:37:54.853Z,6.03
2023-05-21T09:40:25.612Z,7.18
2023-05-21T09:42:54.987Z,7.20
2023-05-21T09:45:24.409Z,7.25
2023-05-21T09:47:56.088Z,6.85
2023-05-21T09:50:26.992Z,6.90
2023-05-21T09:52:55.796Z,6.45
2023-05-21T09:55:26.590Z,6.65
2023-05-21T09:57:54.946Z,7.00
2023-05-21T10:00:24.273Z,8.10
2023-05-21T10:02:55.913Z,7.30
2023-05-21T10:05:27.692Z,7.32
2023-05-21T10:08:03.246Z,7.63
2023-05-21T10:10:33.698Z,7.30
2023-05-21T10:13:07.833Z,7.22
2023-05-21T10:15:39.696Z,7.70
2023-05-21T10:18:09.607Z,8.10
2023-05-21T10:20:39.020Z,8.07
2023-05-21T10:23:07.914Z,7.85
2023-05-21T10:25:38.061Z,7.70
2023-05-21T10:28:07.993Z,9.02
2023-05-21T10:30:38.379Z,8.63
2023-05-21T10:33:07.158Z,9.77
2023-05-21T10:35:35.858Z,9.90
2023-05-21T10:38:05.764Z,9.10
2023-05-21T10:40:34.194Z,8.73
2023-05-21T10:43:47.365Z,8.63
2023-05-21T10:46:33.454Z,9.77
2023-05-21T10:49:17.345Z,10.40
2023-05-21T10:51:54.955Z,9.60
2023-05-21T10:55:03.563Z,10.70
2023-05-21T10:57:59.353Z,10.85
2023-05-21T11:00:31.529Z,11.75
2023-05-21T11:03:00.454Z,11.63
2023-05-21T11:05:40.935Z,11.65
2023-05-21T11:08:22.500Z,10.98
2023-05-21T11:10:54.827Z,12.52
2023-05-21T11:13:23.642Z,12.77
2023-05-21T11:16:15.999Z,12.68
2023-05-21T11:19:03.720Z,12.80
2023-05-21T11:21:34.858Z,12.20
2023-05-21T11:24:10.983Z,11.30
2023-05-21T11:27:04.419Z,11.98
2023-05-21T11:29:47.212Z,12.23
2023-05-21T11:32:20.687Z,13.43
2023-05-21T11:34:49.841Z,13.45
2023-05-21T11:37:27.630Z,14.73
2023-05-21T11:39:57.061Z,14.52
2023-05-21T11:42:33.003Z,15.23
2023-05-21T11:45:02.207Z,15.27
2023-05-21T11:47:33.261Z,14.02
2023-05-21T11:50:02.871Z,15.98
2023-05-21T11:52:31.752Z,15.30
2023-05-21T11:55:00.326Z,15.32
2023-05-21T11:57:31.283Z,14.80
2023-05-21T12:00:00.328Z,15.10
2023-05-21T12:02:29.532Z,14.93
2023-05-21T12:05:03.937Z,15.60
2023-05-21T12:07:32.065Z,14.35
2023-05-21T12:10:01.827Z,14.32
2023-05-21T12:12:38.842Z,13.55
2023-05-21T12:15:15.013Z,13.88
2023-05-21T12:17:43.154Z,13.27
2023-05-21T12:20:16.680Z,14.65
2023-05-21T12:22:45.874Z,13.50
2023-05-21T12:25:13.926Z,14.10
2023-05-21T12:27:45.134Z,14.07
2023-05-21T12:30:13.628Z,13.18
2023-05-21T12:32:44.140Z,12.70
2023-05-21T12:35:24.046Z,13.32
2023-05-21T12:37:55.362Z,13.57
2023-05-21T12:40:23.578Z,13.93
2023-05-21T12:42:52.700Z,12.45
2023-05-21T12:45:22.782Z,13.25
2023-05-21T12:47:56.037Z,14.35
2023-05-21T12:50:26.236Z,12.82
2023-05-21T12:52:58.990Z,14.32
2023-05-21T12:55:27.180Z,14.13
2023-05-21T12:58:05.519Z,13.52
2023-05-21T13:00:34.399Z,13.65
2023-05-21T13:03:04.436Z,13.27
2023-05-21T13:05:34.593Z,15.13
2023-05-21T13:08:02.787Z,13.57
2023-05-21T13:10:30.905Z,13.07
2023-05-21T13:12:58.983Z,12.20
2023-05-21T13:15:27.052Z,13.35
2023-05-21T13:17:56.736Z,13.50
2023-05-21T13:20:27.363Z,14.25
2023-05-21T13:22:57.087Z,13.75
2023-05-21T13:25:28.790Z,14.00
2023-05-21T13:27:58.228Z,13.68
2023-05-21T13:30:26.587Z,14.70
2023-05-21T13:32:55.028Z,14.85
2023-05-21T13:35:23.368Z,13.45
2023-05-21T13:37:51.507Z,15.05
2023-05-21T13:40:20.949Z,14.00
2023-05-21T13:42:50.585Z,14.77
2023-05-21T13:45:21.314Z,14.30
2023-05-21T13:47:49.955Z,14.52
2023-05-21T13:50:18.285Z,15.32
2023-05-21T13:52:47.172Z,14.15
2023-05-21T13:55:16.080Z,15.82
2023-05-21T13:57:46.163Z,13.75
2023-05-21T14:00:16.112Z,14.75
2023-05-21T14:02:44.842Z,15.18
2023-05-21T14:05:13.876Z,15.27
2023-05-21T14:07:42.771Z,13.93
2023-05-21T14:10:11.693Z,14.30
2023-05-21T14:12:40.690Z,14.27
2023-05-21T14:15:11.956Z,14.68
2023-05-21T14:17:42.433Z,15.13
2023-05-21T14:20:11.407Z,15.55
2023-05-21T14:22:39.787Z,14.25
2023-05-21T14:25:08.543Z,13.35
2023-05-21T14:27:38.419Z,13.52
2023-05-21T14:30:07.818Z,14.50
2023-05-21T14:32:37.292Z,13.57
2023-05-21T14:35:06.558Z,14.23
2023-05-21T14:37:34.627Z,14.30
2023-05-21T14:40:02.750Z,12.90
2023-05-21T14:42:31.399Z,14.68
2023-05-21T14:45:10.868Z,14.50
2023-05-21T14:47:48.813Z,13.77
2023-05-21T14:50:18.578Z,14.43
2023-05-21T14:52:46.936Z,14.75
2023-05-21T14:55:16.894Z,13.18
2023-05-21T14:57:45.254Z,13.48
2023-05-21T15:00:14.146Z,13.82
2023-05-21T15:02:42.683Z,14.10
2023-05-21T15:05:12.298Z,13.80
2023-05-21T15:07:40.334Z,14.70
2023-05-21T15:10:09.965Z,13.77
2023-05-21T15:12:38.092Z,13.80
2023-05-21T15:15:07.288Z,14.18
2023-05-21T15:17:35.988Z,14.20
2023-05-21T15:20:04.610Z,13.40
2023-05-21T15:22:34.604Z,13.70
2023-05-21T15:25:03.606Z,14.73
2023-05-21T15:27:31.663Z,13.23
2023-05-21T15:30:00.152Z,15.23
2023-05-21T15:32:28.621Z,13.85
2023-05-21T15:34:56.723Z,12.77
2023-05-21T15:37:24.797Z,13.05
2023-05-21T15:39:54.333Z,13.98
2023-05-21T15:42:22.603Z,14.10
2023-05-21T15:44:50.650Z,12.90
2023-05-21T15:47:18.718Z,13.02
2023-05-21T15:49:46.863Z,13.45
2023-05-21T15:52:14.953Z,13.95
2023-05-21T15:54:42.957Z,12.52
2023-05-21T15:57:12.394Z,12.90
2023-05-21T15:59:40.491Z,13.70
2023-05-21T16:02:09.235Z,13.43
2023-05-21T16:04:37.756Z,13.13
2023-05-21T16:07:06.272Z,13.70
2023-05-21T16:09:35.445Z,13.50
2023-05-21T16:12:03.471Z,13.65
2023-05-21T16:14:32.894Z,14.80
2023-05-21T16:17:01.048Z,15.45
2023-05-21T16:19:29.202Z,15.13
2023-05-21T16:21:57.330Z,14.77
2023-05-21T16:24:25.366Z,14.75
2023-05-21T16:26:53.432Z,15.52
2023-05-21T16:29:22.065Z,16.02
2023-05-21T16:31:51.778Z,15.75
2023-05-21T16:34:19.848Z,14.35
2023-05-21T16:36:47.937Z,14.07
2023-05-21T16:39:16.031Z,15.18
2023-05-21T16:41:44.842Z,14.23
2023-05-21T16:44:13.058Z,14.77
2023-05-21T16:46:41.161Z,15.32
2023-05-21T16:49:10.637Z,17.73
2023-05-21T16:51:38.759Z,15.43
2023-05-21T16:54:06.957Z,14.80
2023-05-21T16:56:35.377Z,16.25
2023-05-21T16:59:03.455Z,15.07
2023-05-21T17:01:31.701Z,15.82
2023-05-21T17:03:59.934Z,15.15
2023-05-21T17:06:29.468Z,15.80
2023-05-21T17:08:57.485Z,14.88
2023-05-21T17:11:25.527Z,14.30
2023-05-21T17:13:53.607Z,13.57
2023-05-21T17:16:21.683Z,13.68
2023-05-21T17:18:49.795Z,14.93
2023-05-21T17:21:18.540Z,14.00
2023-05-21T17:23:47.937Z,14.55
2023-05-21T17:26:16.181Z,14.93
2023-05-21T17:28:44.262Z,15.13
2023-05-21T17:31:12.370Z,15.65
2023-05-21T17:33:40.785Z,14.80
2023-05-21T17:36:08.950Z,15.32
2023-05-21T17:38:36.979Z,15.48
2023-05-21T17:41:06.668Z,14.60
2023-05-21T17:43:34.709Z,14.10
2023-05-21T17:46:02.720Z,14.23
2023-05-21T17:48:30.903Z,15.73
2023-05-21T17:50:59.061Z,15.20
2023-05-21T17:53:27.116Z,15.23
2023-05-21T17:55:55.395Z,14.02
2023-05-21T17:58:53.444Z,15.20
2023-05-21T18:01:21.637Z,15.15
2023-05-21T18:03:49.776Z,14.95
2023-05-21T18:06:17.932Z,14.27
2023-05-21T18:08:46.056Z,15.45
2023-05-21T18:11:14.125Z,14.80
2023-05-21T18:13:42.349Z,14.38
2023-05-21T18:16:11.934Z,15.02
2023-05-21T18:18:40.030Z,15.80
2023-05-21T18:21:08.139Z,15.57
2023-05-21T18:23:36.199Z,15.55
2023-05-21T18:26:04.496Z,15.82
2023-05-21T18:28:33.399Z,16.00
2023-05-21T18:31:03.759Z,15.90
2023-05-21T18:33:33.204Z,15.93
2023-05-21T18:36:01.330Z,16.08
2023-05-21T18:38:29.441Z,15.48
2023-05-21T18:40:57.491Z,15.32
2023-05-21T18:43:25.597Z,16.30
2023-05-21T18:45:53.699Z,15.93
2023-05-21T18:48:21.736Z,16.08
2023-05-21T18:50:51.204Z,15.65
2023-05-21T18:53:19.362Z,15.52
2023-05-21T18:55:47.448Z,16.02
2023-05-21T18:58:15.613Z,16.15
2023-05-21T19:00:43.718Z,15.63
2023-05-21T19:03:12.650Z,15.52
2023-05-21T19:05:40.857Z,16.13
2023-05-21T19:08:10.436Z,16.42
2023-05-21T19:10:39.290Z,16.08
2023-05-21T19:13:08.238Z,15.35
2023-05-21T19:15:36.450Z,16.13
2023-05-21T19:18:04.667Z,16.38
2023-05-21T19:20:32.808Z,15.75
2023-05-21T19:23:01.371Z,16.48
2023-05-21T19:25:31.536Z,16.98
2023-05-21T19:28:00.768Z,16.52
2023-05-21T19:30:28.850Z,17.52
2023-05-21T19:32:57.012Z,16.20
2023-05-21T19:35:25.134Z,16.63
2023-05-21T19:37:54.604Z,16.73
2023-05-21T19:40:23.215Z,15.32
2023-05-21T19:42:52.667Z,16.38
2023-05-21T19:45:21.526Z,16.13
2023-05-21T19:47:49.788Z,15.48
2023-05-21T19:50:17.973Z,16.02
2023-05-21T19:52:46.025Z,15.82
2023-05-21T19:55:14.491Z,15.82
2023-05-21T19:57:42.605Z,17.55
2023-05-21T20:00:14.542Z,16.02
2023-05-21T20:02:42.632Z,16.98
2023-05-21T20:05:11.200Z,17.00
2023-05-21T20:07:39.255Z,16.10
2023-05-21T20:10:08.748Z,17.33
2023-05-21T20:12:36.862Z,17.02
2023-05-21T20:15:06.718Z,15.77
2023-05-21T20:17:39.763Z,15.98
2023-05-21T20:20:10.372Z,16.30
2023-05-21T20:22:38.539Z,16.15
2023-05-21T20:25:08.798Z,16.23
2023-05-21T20:27:38.659Z,16.05
2023-05-21T20:30:32.789Z,15.20
2023-05-21T20:33:03.214Z,15.50
2023-05-21T20:35:31.366Z,15.93
2023-05-21T20:38:02.091Z,15.45
2023-05-21T20:40:30.174Z,15.55
2023-05-21T20:42:58.522Z,15.20
2023-05-21T20:45:29.658Z,15.30
2023-05-21T20:47:57.949Z,16.25
2023-05-21T20:50:28.791Z,15.00
2023-05-21T20:52:58.044Z,14.57
2023-05-21T20:55:26.445Z,14.45
2023-05-21T20:57:54.622Z,15.35
2023-05-21T21:00:22.899Z,14.73
2023-05-21T21:02:51.011Z,13.70
2023-05-21T21:05:20.153Z,15.65
2023-05-21T21:07:49.564Z,13.85
2023-05-21T21:10:17.867Z,13.90
2023-05-21T21:12:45.930Z,14.40
2023-05-21T21:15:14.246Z,13.27
2023-05-21T21:17:42.375Z,13.27
2023-05-21T21:20:12.802Z,13.70
2023-05-21T21:22:41.251Z,13.02
2023-05-21T21:25:11.643Z,13.52
2023-05-21T21:27:39.779Z,13.48
2023-05-21T21:30:09.186Z,12.73
2023-05-21T21:32:37.396Z,13.05
2023-05-21T21:35:05.980Z,12.68
2023-05-21T21:37:34.072Z,13.38
2023-05-21T21:40:02.246Z,13.02
2023-05-21T21:42:31.734Z,13.73
2023-05-21T21:44:59.797Z,12.60
2023-05-21T21:47:28.006Z,12.68
2023-05-21T21:49:56.079Z,13.55
2023-05-21T21:52:27.491Z,12.85
2023-05-21T21:54:56.340Z,13.07
2023-05-21T21:57:27.550Z,13.25
2023-05-21T21:59:59.578Z,12.65
2023-05-21T22:02:51.963Z,13.10
2023-05-21T22:05:26.526Z,13.13
2023-05-21T22:07:55.009Z,13.23
2023-05-21T22:10:26.891Z,12.73
2023-05-21T22:12:55.637Z,12.85
2023-05-21T22:15:28.866Z,13.32
2023-05-21T22:21:14.325Z,13.00
2023-05-21T22:23:42.703Z,12.77
2023-05-21T22:26:11.136Z,12.82
2023-05-21T22:28:39.170Z,13.13
2023-05-21T22:31:09.098Z,13.02
2023-05-21T22:33:37.792Z,12.88
2023-05-21T22:36:06.669Z,13.18
2023-05-21T22:38:34.831Z,13.57
2023-05-21T22:41:03.638Z,13.77
2023-05-21T22:43:31.888Z,12.70
2023-05-21T22:46:00.057Z,11.88
2023-05-21T22:48:30.691Z,12.95
2023-05-21T22:50:59.171Z,12.27
2023-05-21T22:53:27.298Z,13.07
2023-05-21T22:55:55.608Z,12.98
2023-05-21T22:58:23.717Z,12.90
2023-05-21T23:00:51.756Z,12.40
2023-05-21T23:03:19.904Z,12.43
2023-05-21T23:05:49.577Z,13.43
2023-05-21T23:08:17.778Z,13.40
2023-05-21T23:10:45.945Z,13.15
2023-05-21T23:13:14.013Z,13.43
2023-05-21T23:15:43.745Z,13.70
2023-05-21T23:18:12.539Z,13.50
2023-05-21T23:20:41.895Z,13.38
2023-05-21T23:23:12.125Z,13.68
2023-05-21T23:25:40.205Z,12.57
2023-05-21T23:28:08.355Z,14.52
2023-05-21T23:30:36.525Z,13.93
2023-05-21T23:33:05.002Z,12.93
2023-05-21T23:35:33.118Z,13.73
2023-05-21T23:38:01.319Z,13.63
2023-05-21T23:40:30.763Z,14.07
2023-05-21T23:42:58.974Z,14.57
2023-05-21T23:45:27.095Z,13.98
2023-05-21T23:47:55.192Z,14.38
2023-05-21T23:50:23.236Z,13.93
2023-05-21T23:52:51.464Z,14.20
2023-05-21T23:55:19.532Z,14.23
2023-05-21T23:57:49.077Z,13.73
